Bristol, Wisconsin
Current Conditions -  °F | °C
As of 3:53 PM on Monday 20 Oct 2014 (Local Time) from KENW Reporting Station
Overcast Overcast  
Wind Chill: 55°   Ceiling: 3200
Heat Index: 55°   Visibility: 10mi
Dew Point: 45°   Wind: 6mph
Humidity: 69%   Direction: 10°N
Pressure: 29.9"   Gusts: NA
Location:  42.56°N, 88.05°W
Report Text: KENW 202053Z 01005KT 10SM OVC032 13/07 A2990 RMK AO2 SLP125 T01280072 53018
Loading
Personal Weather Stations






























Interactive Weather Map
Tropical Storm Tracking
New forecast layout! Learn more

10-Day Weather Forecast

Advertisements
Track Severe Weather on mobile